Portada
METAR-TAF:

METAR-TAF

Aeroports :

Berbérati, República Centreafricana

latitud: 04-15N, longitud: 015-48E, altitud: 582 m

Observació

L'informe es va fer fa 2 hores i 8 minuts, a les 08:00 UTC
Vent 6 kt del Oest
Temperatura 25°C
Humitat 83%
Pressió 1015 hPa
Visibilitat 10 km o més
Núvols disperses a una alçada de 1300 ft

METAR: FEFT 300800Z 28006KT 9999 SCT013 25/22 Q1015

Hora: 11:08 (10:08 UTC)


TAF: manca

Observacions i pronòstics meteorològics de més de 4000 aeroports (METAR i TAF).

Les estacions disponibles són els punts grocs i vermells al mapa.

Posi el ratolí al punt desitjat per veure el nom de l'estació.

Feu clic per veure les observacions i els pronòstics meteorològics.

Per canviar el mapa: feu clic els botons verds amb una creu de color negre per apropar; al botó verd amb un guió per allunyar la imatge; o en les fletxes verdes per a mapes adjacents.


METAR-TAF: